createdAt,value
2019-01-25T05:27:37.911Z,-0.40
2019-01-25T05:30:11.332Z,-0.30
2019-01-25T05:32:44.004Z,-0.40
2019-01-25T05:35:16.668Z,-0.40
2019-01-25T05:37:49.306Z,-0.40
2019-01-25T05:40:23.851Z,-0.40
2019-01-25T05:42:56.512Z,-0.40
2019-01-25T05:45:29.155Z,-0.40
2019-01-25T05:48:01.821Z,-0.30
2019-01-25T05:50:34.463Z,-0.30
2019-01-25T05:53:07.414Z,-0.30
2019-01-25T05:55:40.054Z,-0.30
2019-01-25T05:58:12.769Z,-0.20
2019-01-25T06:00:46.274Z,-0.20
2019-01-25T06:03:19.443Z,-0.20
2019-01-25T06:05:58.214Z,-0.20
2019-01-25T06:08:30.884Z,-0.20
2019-01-25T06:11:10.563Z,-0.10
2019-01-25T06:13:44.242Z,-0.10
2019-01-25T06:16:16.880Z,-0.10
2019-01-25T06:18:49.566Z,-0.10
2019-01-25T06:21:22.543Z,0.00
2019-01-25T06:23:55.219Z,0.00
2019-01-25T06:26:27.900Z,0.00
2019-01-25T06:29:00.863Z,0.00
2019-01-25T06:31:33.507Z,0.00
2019-01-25T06:34:06.151Z,0.00
2019-01-25T06:36:38.814Z,0.10
2019-01-25T06:39:11.496Z,0.10
2019-01-25T06:41:44.419Z,0.10
2019-01-25T06:44:17.076Z,0.10
2019-01-25T06:46:49.730Z,0.10
2019-01-25T06:49:22.389Z,0.10
2019-01-25T06:51:55.045Z,0.10
2019-01-25T06:54:27.703Z,0.10
2019-01-25T06:57:00.360Z,0.10
2019-01-25T06:59:33.315Z,0.10
2019-01-25T07:02:06.127Z,0.10
2019-01-25T07:04:39.214Z,0.10
2019-01-25T07:07:11.894Z,0.10
2019-01-25T07:09:44.550Z,0.10
2019-01-25T07:12:17.199Z,0.20
2019-01-25T07:14:49.851Z,0.20
2019-01-25T07:17:22.495Z,0.20
2019-01-25T07:19:55.454Z,0.20
2019-01-25T07:22:28.091Z,0.20
2019-01-25T07:25:01.105Z,0.20
2019-01-25T07:27:33.738Z,0.20
2019-01-25T07:30:07.990Z,0.30
2019-01-25T07:32:40.625Z,0.20
2019-01-25T07:35:13.302Z,0.20
2019-01-25T07:37:46.092Z,0.30
2019-01-25T07:40:18.732Z,0.20
2019-01-25T07:42:51.386Z,0.30
2019-01-25T07:45:24.094Z,0.30
2019-01-25T07:47:56.757Z,0.30
2019-01-25T07:50:29.484Z,0.30
2019-01-25T07:53:02.170Z,0.30
2019-01-25T07:55:35.091Z,0.30
2019-01-25T07:58:07.727Z,0.30
2019-01-25T08:00:40.382Z,0.30
2019-01-25T08:03:13.032Z,0.40
2019-01-25T08:05:45.659Z,0.40
2019-01-25T08:08:18.341Z,0.40
2019-01-25T08:10:50.981Z,0.40
2019-01-25T08:13:23.595Z,0.50
2019-01-25T08:18:29.950Z,0.50
2019-01-25T08:21:02.619Z,0.50
2019-01-25T08:23:35.295Z,0.50
2019-01-25T08:26:08.007Z,0.60
2019-01-25T08:28:40.696Z,0.60
2019-01-25T08:31:13.461Z,0.60
2019-01-25T08:33:46.153Z,0.60
2019-01-25T08:36:18.891Z,0.60
2019-01-25T08:38:52.291Z,0.70
2019-01-25T08:41:25.022Z,0.70
2019-01-25T08:43:58.187Z,0.80
2019-01-25T08:46:30.831Z,0.80
2019-01-25T08:49:03.568Z,0.80
2019-01-25T08:51:36.566Z,0.90
2019-01-25T08:54:09.343Z,0.90
2019-01-25T08:56:42.028Z,0.90
2019-01-25T08:59:14.704Z,1.00
2019-01-25T09:01:47.415Z,1.00
2019-01-25T09:04:20.048Z,1.00
2019-01-25T09:06:52.698Z,1.10
2019-01-25T09:09:25.676Z,1.10
2019-01-25T09:11:58.883Z,1.10
2019-01-25T09:14:31.763Z,1.10
2019-01-25T09:17:04.406Z,1.10
2019-01-25T09:19:37.051Z,1.10
2019-01-25T09:22:09.714Z,1.20
2019-01-25T09:24:42.650Z,1.20
2019-01-25T09:27:15.327Z,1.20
2019-01-25T09:29:47.988Z,1.20
2019-01-25T09:32:20.635Z,1.20
2019-01-25T09:34:53.280Z,1.20
2019-01-25T09:37:25.919Z,1.20
2019-01-25T09:39:58.557Z,1.20
2019-01-25T09:45:04.798Z,1.40
2019-01-25T09:47:37.438Z,1.40
2019-01-25T09:50:12.184Z,1.50
2019-01-25T09:52:44.822Z,1.50
2019-01-25T09:55:19.579Z,1.60
2019-01-25T09:57:53.280Z,1.60
2019-01-25T10:00:29.360Z,1.60
2019-01-25T10:03:02.002Z,1.60
2019-01-25T10:05:34.649Z,1.60
2019-01-25T10:08:07.279Z,1.70
2019-01-25T10:10:39.923Z,1.70
2019-01-25T10:13:12.587Z,1.80
2019-01-25T10:15:45.224Z,1.90
2019-01-25T10:18:17.866Z,1.90
2019-01-25T10:20:50.511Z,2.00
2019-01-25T10:23:23.143Z,2.10
2019-01-25T10:25:55.815Z,2.30
2019-01-25T10:28:28.442Z,2.40
2019-01-25T10:31:01.109Z,2.60
2019-01-25T10:33:33.971Z,2.80
2019-01-25T10:36:06.903Z,2.90
2019-01-25T10:38:39.562Z,3.00
2019-01-25T10:41:12.256Z,3.10
2019-01-25T10:43:44.886Z,3.10
2019-01-25T10:46:17.537Z,3.10
2019-01-25T10:48:50.175Z,3.00
2019-01-25T10:51:22.822Z,3.00
2019-01-25T10:53:55.483Z,3.00
2019-01-25T10:56:28.420Z,2.90
2019-01-25T10:59:01.310Z,2.90
2019-01-25T11:01:33.958Z,2.90
2019-01-25T11:04:11.370Z,2.90
2019-01-25T11:06:41.875Z,2.80
2019-01-25T11:09:15.018Z,2.80
2019-01-25T11:11:48.236Z,2.80
2019-01-25T11:14:21.533Z,2.80
2019-01-25T11:16:54.242Z,2.90
2019-01-25T11:19:26.895Z,2.90
2019-01-25T11:21:59.546Z,3.00
2019-01-25T11:24:32.178Z,3.10
2019-01-25T11:27:04.876Z,3.20
2019-01-25T11:29:37.934Z,3.40
2019-01-25T11:32:10.945Z,3.40
2019-01-25T11:34:43.582Z,3.40
2019-01-25T11:37:16.238Z,3.40
2019-01-25T11:39:49.354Z,3.40
2019-01-25T11:42:22.106Z,3.40
2019-01-25T11:44:54.815Z,3.50
2019-01-25T11:47:27.463Z,3.50
2019-01-25T11:50:00.100Z,3.60
2019-01-25T11:52:33.027Z,3.60
2019-01-25T11:55:06.264Z,3.60
2019-01-25T11:57:39.014Z,3.60
2019-01-25T12:00:25.714Z,3.60
2019-01-25T12:02:58.380Z,3.60
2019-01-25T12:05:31.326Z,3.60
2019-01-25T12:08:04.078Z,3.70
2019-01-25T12:10:37.010Z,3.80
2019-01-25T12:13:15.856Z,3.90
2019-01-25T12:15:44.126Z,3.90
2019-01-25T12:18:17.107Z,4.00
2019-01-25T12:20:49.765Z,4.00
2019-01-25T12:23:22.429Z,4.20
2019-01-25T12:25:55.415Z,4.20
2019-01-25T12:28:28.079Z,4.30
2019-01-25T12:31:00.762Z,4.40
2019-01-25T12:33:33.455Z,4.50
2019-01-25T12:36:06.099Z,4.60
2019-01-25T12:38:39.480Z,4.60
2019-01-25T12:41:12.108Z,4.60
2019-01-25T12:43:44.754Z,4.60
2019-01-25T12:46:17.427Z,4.60
2019-01-25T12:48:50.051Z,4.60
2019-01-25T12:51:27.450Z,4.60
2019-01-25T12:54:00.450Z,4.60
2019-01-25T12:56:33.091Z,4.60
2019-01-25T12:59:05.745Z,4.60
2019-01-25T13:01:38.468Z,4.60
2019-01-25T13:04:11.447Z,4.60
2019-01-25T13:06:44.099Z,4.70
2019-01-25T13:09:17.327Z,4.70
2019-01-25T13:11:50.651Z,4.70
2019-01-25T13:14:23.314Z,4.70
2019-01-25T13:16:55.947Z,4.80
2019-01-25T13:19:28.630Z,4.90
2019-01-25T13:22:01.273Z,4.90
2019-01-25T13:24:34.187Z,4.90
2019-01-25T13:27:06.855Z,4.90
2019-01-25T13:29:39.491Z,5.00
2019-01-25T13:32:14.510Z,5.00
2019-01-25T13:34:46.588Z,5.00
2019-01-25T13:37:19.330Z,4.90
2019-01-25T13:39:52.656Z,4.90
2019-01-25T13:42:25.362Z,4.90
2019-01-25T13:44:58.051Z,4.90
2019-01-25T13:47:30.722Z,4.90
2019-01-25T13:50:03.551Z,4.90
2019-01-25T13:52:36.674Z,4.90
2019-01-25T13:55:11.252Z,5.00
2019-01-25T13:57:44.206Z,5.00
2019-01-25T14:00:28.078Z,5.10
2019-01-25T14:03:00.730Z,5.10
2019-01-25T14:05:33.383Z,5.10
2019-01-25T14:08:06.036Z,5.00
2019-01-25T14:10:38.732Z,4.90
2019-01-25T14:13:11.398Z,4.90
2019-01-25T14:15:44.035Z,4.80
2019-01-25T14:18:16.756Z,4.80
2019-01-25T14:20:49.882Z,4.80
2019-01-25T14:23:22.605Z,4.70
2019-01-25T14:25:55.287Z,4.70
2019-01-25T14:28:27.951Z,4.70
2019-01-25T14:31:00.933Z,4.70
2019-01-25T14:33:33.574Z,4.70
2019-01-25T14:36:06.519Z,4.70
2019-01-25T14:38:39.423Z,4.60
2019-01-25T14:41:12.055Z,4.60
2019-01-25T14:43:44.707Z,4.60
2019-01-25T14:46:17.454Z,4.50
2019-01-25T14:48:50.128Z,4.40
2019-01-25T14:51:22.751Z,4.40
2019-01-25T14:53:55.410Z,4.30
2019-01-25T14:56:28.056Z,4.30
2019-01-25T14:59:00.993Z,4.20
2019-01-25T15:01:33.622Z,4.20
2019-01-25T15:04:06.548Z,4.20
2019-01-25T15:06:39.501Z,4.20
2019-01-25T15:09:12.483Z,4.20
2019-01-25T15:11:45.114Z,4.20
2019-01-25T15:14:17.830Z,4.20
2019-01-25T15:16:50.473Z,4.20
2019-01-25T15:19:23.226Z,4.10
2019-01-25T15:21:56.175Z,4.10
2019-01-25T15:24:29.173Z,4.10
2019-01-25T15:27:01.812Z,4.10
2019-01-25T15:29:34.446Z,4.00
2019-01-25T15:32:07.370Z,4.00
2019-01-25T15:34:40.022Z,4.00
2019-01-25T15:37:12.649Z,3.90
2019-01-25T15:39:45.300Z,3.90
2019-01-25T15:42:17.932Z,3.90
2019-01-25T15:44:50.570Z,3.90
2019-01-25T15:47:23.211Z,3.80
2019-01-25T15:49:55.859Z,3.80
2019-01-25T15:52:28.495Z,3.80
2019-01-25T15:55:01.162Z,3.70
2019-01-25T15:57:33.798Z,3.70
2019-01-25T16:00:10.958Z,3.70
2019-01-25T16:02:43.659Z,3.70
2019-01-25T16:05:17.613Z,3.70
2019-01-25T16:07:50.266Z,3.70
2019-01-25T16:10:22.923Z,3.60
2019-01-25T16:12:55.552Z,3.60
2019-01-25T16:15:29.908Z,3.60
2019-01-25T16:18:02.566Z,3.60
2019-01-25T16:20:35.230Z,3.60
2019-01-25T16:23:07.910Z,3.60
2019-01-25T16:25:40.834Z,3.60
2019-01-25T16:28:13.475Z,3.60
2019-01-25T16:30:46.107Z,3.60
2019-01-25T16:33:18.738Z,3.60
2019-01-25T16:35:52.439Z,3.50
2019-01-25T16:38:25.342Z,3.50
2019-01-25T16:40:58.105Z,3.50
2019-01-25T16:43:30.778Z,3.50
2019-01-25T16:46:03.785Z,3.40
2019-01-25T16:48:37.626Z,3.40
2019-01-25T16:51:10.294Z,3.30
2019-01-25T16:53:42.926Z,3.20
2019-01-25T16:56:15.570Z,3.20
2019-01-25T16:58:48.500Z,3.10
2019-01-25T17:01:21.167Z,3.10
2019-01-25T17:03:53.809Z,3.00
2019-01-25T17:06:26.459Z,3.00
2019-01-25T17:08:59.086Z,2.90
2019-01-25T17:11:31.726Z,2.90
2019-01-25T17:14:04.374Z,2.90
2019-01-25T17:16:37.383Z,2.80
2019-01-25T17:19:10.029Z,2.80
2019-01-25T17:21:42.700Z,2.80
2019-01-25T17:24:15.337Z,2.80
2019-01-25T17:26:47.998Z,2.80
2019-01-25T17:29:20.645Z,2.80
2019-01-25T17:31:53.301Z,2.80
2019-01-25T17:34:25.966Z,2.80
2019-01-25T17:36:58.638Z,2.80
2019-01-25T17:39:31.281Z,2.80
2019-01-25T17:42:03.930Z,2.80
2019-01-25T17:44:41.279Z,2.80
2019-01-25T17:47:10.961Z,2.80
2019-01-25T17:49:43.610Z,2.80
2019-01-25T17:52:16.283Z,2.70
2019-01-25T17:54:48.940Z,2.70
2019-01-25T17:57:21.603Z,2.70
2019-01-25T17:59:54.251Z,2.60
2019-01-25T18:02:27.235Z,2.60
2019-01-25T18:04:59.898Z,2.60
2019-01-25T18:07:32.536Z,2.60
2019-01-25T18:10:06.963Z,2.60
2019-01-25T18:12:39.595Z,2.60
2019-01-25T18:15:12.821Z,2.60
2019-01-25T18:17:45.714Z,2.60
2019-01-25T18:20:18.397Z,2.60
2019-01-25T18:22:51.096Z,2.60
2019-01-25T18:25:34.712Z,2.50
2019-01-25T18:28:09.941Z,2.50
2019-01-25T18:30:46.326Z,2.40
2019-01-25T18:33:18.967Z,2.40
2019-01-25T18:35:51.716Z,2.40
2019-01-25T18:38:24.350Z,2.40
2019-01-25T18:40:56.999Z,2.40
2019-01-25T18:43:29.922Z,2.40
2019-01-25T18:46:02.864Z,2.40
2019-01-25T18:48:35.797Z,2.40
2019-01-25T18:51:08.731Z,2.50
2019-01-25T18:53:41.361Z,2.50
2019-01-25T18:56:15.542Z,2.50
2019-01-25T18:58:48.766Z,2.50
2019-01-25T19:01:21.445Z,2.50
2019-01-25T19:03:54.358Z,2.60
2019-01-25T19:06:27.007Z,2.60
2019-01-25T19:08:59.643Z,2.60
2019-01-25T19:11:32.293Z,2.60
2019-01-25T19:14:04.924Z,2.60
2019-01-25T19:16:37.579Z,2.60
2019-01-25T19:19:10.278Z,2.60
2019-01-25T19:21:42.927Z,2.60
2019-01-25T19:24:15.562Z,2.60
2019-01-25T19:26:48.222Z,2.50
2019-01-25T19:29:21.147Z,2.60
2019-01-25T19:31:53.798Z,2.60
2019-01-25T19:34:26.427Z,2.50
2019-01-25T19:36:59.083Z,2.50
2019-01-25T19:39:31.710Z,2.50
2019-01-25T19:42:04.360Z,2.50
2019-01-25T19:44:37.034Z,2.50
2019-01-25T19:47:10.079Z,2.50
2019-01-25T19:49:42.714Z,2.50
2019-01-25T19:52:15.450Z,2.50
2019-01-25T19:54:48.090Z,2.50
2019-01-25T19:57:20.745Z,2.50
2019-01-25T19:59:53.702Z,2.50
2019-01-25T20:02:26.370Z,2.50
2019-01-25T20:04:59.011Z,2.50
2019-01-25T20:07:31.652Z,2.50
2019-01-25T20:10:04.758Z,2.50
2019-01-25T20:12:37.414Z,2.50
2019-01-25T20:15:11.859Z,2.50
2019-01-25T20:17:44.810Z,2.50
2019-01-25T20:20:20.154Z,2.50
2019-01-25T20:22:53.588Z,2.50
2019-01-25T20:25:26.223Z,2.50
2019-01-25T20:27:58.894Z,2.50
2019-01-25T20:30:31.627Z,2.50
2019-01-25T20:33:04.542Z,2.40
2019-01-25T20:35:39.218Z,2.40
2019-01-25T20:38:12.191Z,2.30
2019-01-25T20:40:44.868Z,2.40
2019-01-25T20:43:17.874Z,2.40
2019-01-25T20:45:50.512Z,2.50
2019-01-25T20:48:23.153Z,2.40
2019-01-25T20:50:55.779Z,2.30
2019-01-25T20:53:28.417Z,2.40
2019-01-25T20:56:01.394Z,2.50
2019-01-25T20:58:34.038Z,2.50
2019-01-25T21:01:06.674Z,2.50
2019-01-25T21:03:39.339Z,2.50
2019-01-25T21:06:11.975Z,2.50
2019-01-25T21:08:45.007Z,2.50
2019-01-25T21:11:17.643Z,2.50
2019-01-25T21:13:50.608Z,2.50
2019-01-25T21:16:23.238Z,2.50
2019-01-25T21:18:55.899Z,2.50
2019-01-25T21:21:28.562Z,2.50
2019-01-25T21:24:01.530Z,2.50
2019-01-25T21:26:35.053Z,2.50
2019-01-25T21:29:07.699Z,2.50
2019-01-25T21:31:40.350Z,2.50
2019-01-25T21:34:13.269Z,2.60
2019-01-25T21:36:46.227Z,2.60
